Have a Safe July 4th! 

Flight Track Log - Related Links

Times and Time Zones

All times are in EDT time to prevent confusion due to time zone crossing. See the UAL5900 flight status page for this flight to view local times or setup timezone preferences in your user account.

Time Position Orientation Groundspeed Altitude Reporting Facility
EDT Latitude Longitude Course Direction KTS MPH feet Rate Location/Type
Tue 05:55:41 AM 43.6486 -70.3542 226° Southwest 163 188 1,100  Level Boston Center
Tue 05:56:41 AM 43.6561 -70.4369 277° West 201 231 2,800 1,900 Climbing Boston Center
Tue 05:57:41 AM 43.6175 -70.4900 225° Southwest 227 261 4,900 1,950 Climbing Boston Center
Tue 05:58:41 AM 43.5581 -70.5433 213° Southwest 240 276 6,700 2,000 Climbing Boston Center
Tue 05:59:00 AM 43.4508 -70.2821 229° Southwest  Level FlightAware Approximate
Tue 05:59:41 AM 43.4900 -70.5856 204° Southwest 261 300 8,900  Level Boston Center
Tue 06:00:00 AM 43.3857 -70.3935 226° Southwest  Level FlightAware Approximate
Tue 06:00:41 AM 43.4153 -70.6194 198° South 285 328 10,500  Level Boston Center
Tue 06:01:41 AM 43.3431 -70.6472 196° South 299 344 12,300 1,900 Climbing Boston Center
Tue 06:02:41 AM 43.2497 -70.6842 196° South 305 351 14,300 1,800 Climbing Boston Center
Tue 06:03:41 AM 43.1772 -70.7147 197° South 310 357 15,900 1,550 Climbing Boston Center
Tue 06:04:41 AM 43.0928 -70.7739 207° Southwest 310 357 17,400 1,000 Climbing Boston Center
Tue 06:05:41 AM 43.0183 -70.8242 206° Southwest 329 379 17,900 550 Climbing Boston Center
Tue 06:06:41 AM 42.9192 -70.8950 208° Southwest 357 411 18,500 600 Climbing Boston Center
Tue 06:07:41 AM 42.8264 -70.9594 207° Southwest 374 430 19,100 800 Climbing Boston Center
Tue 06:08:41 AM 42.7228 -71.0100 200° South 385 443 20,100 1,100 Climbing Boston Center
Tue 06:09:41 AM 42.6172 -71.0633 200° South 396 456 21,300 1,200 Climbing Boston Center
Tue 06:10:41 AM 42.5178 -71.1247 204° Southwest 402 463 22,500 1,200 Climbing Boston Center
Tue 06:11:41 AM 42.4692 -71.2467 242° Southwest 363 418 23,700 1,200 Climbing Boston Center
Tue 06:12:41 AM 42.4331 -71.3767 249° West 358 412 24,900 1,150 Climbing Boston Center
Tue 06:13:41 AM 42.4008 -71.5067 251° West 358 412 26,000 1,050 Climbing Boston Center
Tue 06:14:41 AM 42.3600 -71.6364 247° West 369 425 27,000 1,000 Climbing Boston Center
Tue 06:15:41 AM 42.3256 -71.7661 250° West 375 432 28,000 1,050 Climbing Boston Center
Tue 06:16:41 AM 42.2886 -71.8956 249° West 375 432 29,100 1,050 Climbing Boston Center
Tue 06:17:41 AM 42.2539 -72.0250 250° West 375 432 30,100 1,000 Climbing Boston Center
Tue 06:18:41 AM 42.2186 -72.1542 250° West 375 432 31,100 1,000 Climbing Boston Center
Tue 06:19:41 AM 42.1794 -72.2831 248° West 375 432 32,100 1,000 Climbing Boston Center
Tue 06:20:41 AM 42.1358 -72.4092 245° Southwest 375 432 33,100 1,000 Climbing Boston Center
Tue 06:21:41 AM 42.0731 -72.5183 232° Southwest 375 432 34,100 1,000 Climbing Boston Center
Tue 06:22:41 AM 42.0083 -72.6300 232° Southwest 375 432 35,100 900 Climbing Boston Center
Tue 06:23:41 AM 41.9561 -72.7219 233° Southwest 362 417 35,900 450 Climbing Boston Center
Tue 06:24:41 AM 41.8911 -72.8306 231° Southwest 367 422 36,000 50 Climbing Boston Center
Tue 06:25:41 AM 41.8261 -72.9472 233° Southwest 373 429 36,000  Level Boston Center
Tue 06:26:41 AM 41.7442 -73.0828 231° Southwest 416 479 36,000  Level Boston Center
Tue 06:27:41 AM 41.6747 -73.2044 233° Southwest 422 486 36,000  Level Boston Center
Tue 06:28:41 AM 41.6008 -73.3283 231° Southwest 422 486 36,000  Level Boston Center
Tue 06:29:41 AM 41.5417 -73.4303 232° Southwest 422 486 36,000  Level Boston Center
Tue 06:30:41 AM 41.5089 -73.5850 254° West 407 468 36,000  Level Boston Center
Tue 06:31:41 AM 41.5406 -73.7381 285° West 401 461 36,000 -300 Level Boston Center
Tue 06:32:41 AM 41.5658 -73.8883 283° West 410 472 35,400 -818 Descending Boston Center
Tue 06:33:53 AM 41.4872 -74.0361 235° Southwest 367 422 34,200 -646 Descending New York Center
Tue 06:34:51 AM 41.3975 -74.1175 214° Southwest 397 457 34,000 -101 Descending New York Center
Tue 06:35:52 AM 41.2989 -74.2092 215° Southwest 410 472 34,000  Level New York Center
Tue 06:36:53 AM 41.2028 -74.2981 215° Southwest 429 494 34,000 -100 Level New York Center
Tue 06:37:52 AM 41.1061 -74.3922 216° Southwest 435 501 33,800 -807 Descending New York Center
Tue 06:38:52 AM 41.0094 -74.4886 217° Southwest 441 507 32,400 -1,450 Descending New York Center
Tue 06:39:52 AM 40.9167 -74.5853 218° Southwest 441 507 30,900 -1,513 Descending New York Center
Tue 06:40:51 AM 40.8458 -74.7156 234° Southwest 434 499 29,400 -1,400 Descending New York Center
Tue 06:41:52 AM 40.7869 -74.8547 241° Southwest 439 505 28,100 -694 Descending New York Center
Tue 06:42:52 AM 40.7261 -74.9853 238° Southwest 439 505 28,000 -50 Descending New York Center
Tue 06:43:53 AM 40.6647 -75.1211 239° Southwest 434 499 28,000  Level New York Center
Tue 06:44:53 AM 40.6033 -75.2592 240° Southwest 434 499 28,000 -555 Level New York Center
Tue 06:45:52 AM 40.5419 -75.3944 239° Southwest 434 499 26,900 -1,650 Descending New York Center
Tue 06:46:53 AM 40.4781 -75.5322 239° Southwest 434 499 24,700 -2,319 Descending New York Center
Tue 06:47:51 AM 40.4142 -75.6667 238° Southwest 434 499 22,300 -2,319 Descending New York Center
Tue 06:48:52 AM 40.3544 -75.7989 239° Southwest 434 499 20,100 -1,140 Descending New York Center
Tue 06:49:52 AM 40.2906 -75.9275 237° Southwest 428 493 20,000 -50 Descending New York Center
Tue 06:50:53 AM 40.2308 -76.0536 238° Southwest 423 487 20,000 -496 Level New York Center
Tue 06:51:53 AM 40.1639 -76.1925 238° Southwest 413 475 19,000 -1,000 Descending New York Center
Tue 06:52:53 AM 40.1081 -76.3183 240° Southwest 408 470 18,000 -1,050 Descending New York Center
Tue 06:53:53 AM 40.0500 -76.4467 239° Southwest 416 479 16,900 -994 Descending New York Center
Tue 06:55:48 AM 39.9333 -76.6833 237° Southwest 402 463 15,100 -639 Descending Potomac TRACON
Tue 06:56:42 AM 39.8833 -76.8000 241° Southwest 396 456 15,100 -211 Level Potomac TRACON
Tue 06:57:42 AM 39.8333 -76.9167 241° Southwest 393 452 14,700 -1,000 Descending Potomac TRACON
Tue 06:58:42 AM 39.7833 -77.0333 241° Southwest 391 450 13,100 -1,842 Descending Potomac TRACON
Tue 06:59:36 AM 39.7333 -77.1333 237° Southwest 373 429 11,200 -1,722 Descending Potomac TRACON
Tue 07:00:30 AM 39.6833 -77.2333 237° Southwest 342 394 10,000 -684 Descending Potomac TRACON
Tue 07:01:30 AM 39.6333 -77.3167 232° Southwest 282 325 9,900 -678 Descending Potomac TRACON
Tue 07:02:25 AM 39.6000 -77.4000 243° Southwest 250 288 8,700 -947 Descending Potomac TRACON
Tue 07:03:24 AM 39.5667 -77.4667 237° Southwest 241 277 8,100 -756 Descending Potomac TRACON
Tue 07:04:24 AM 39.5000 -77.4667 180° South 256 295 7,200 -522 Descending Potomac TRACON
Tue 07:05:19 AM 39.4500 -77.4500 166° South 245 282 7,100 -110 Descending Potomac TRACON
Tue 07:06:13 AM 39.3833 -77.4500 180° South 246 283 7,000 -53 Descending Potomac TRACON
Tue 07:07:13 AM 39.3167 -77.4500 180° South 238 274 7,000 -450 Level Potomac TRACON
Tue 07:08:13 AM 39.2500 -77.4500 180° South 236 272 6,100 -850 Descending Potomac TRACON
Tue 07:09:13 AM 39.2000 -77.4500 180° South 199 229 5,300 -900 Descending Potomac TRACON
Tue 07:10:13 AM 39.1500 -77.4500 180° South 177 204 4,300 -1,200 Descending Potomac TRACON
Tue 07:11:13 AM 39.1000 -77.4500 180° South 171 197 2,900 -1,400 Descending Potomac TRACON

Login

Don't have an account? Register now (free) for customized features, flight alerts, and more!